createdAt,value
2022-09-03T00:00:13.549Z,13.37
2022-09-03T00:02:46.214Z,13.32
2022-09-03T00:05:19.680Z,13.39
2022-09-03T00:08:06.752Z,13.39
2022-09-03T00:10:39.942Z,13.26
2022-09-03T00:13:10.687Z,13.09
2022-09-03T00:15:41.002Z,13.18
2022-09-03T00:18:11.366Z,13.19
2022-09-03T00:20:44.974Z,13.20
2022-09-03T00:23:21.683Z,13.14
2022-09-03T00:25:51.925Z,13.19
2022-09-03T00:28:23.898Z,13.13
2022-09-03T00:30:55.586Z,12.89
2022-09-03T00:33:28.978Z,12.91
2022-09-03T00:36:05.208Z,12.87
2022-09-03T00:38:34.034Z,12.79
2022-09-03T00:41:06.095Z,12.83
2022-09-03T00:43:48.307Z,12.75
2022-09-03T00:46:19.755Z,12.84
2022-09-03T00:49:06.975Z,12.63
2022-09-03T00:51:37.301Z,12.71
2022-09-03T00:54:13.311Z,12.74
2022-09-03T00:56:49.908Z,12.77
2022-09-03T00:59:38.347Z,12.54
2022-09-03T01:02:28.715Z,12.53
2022-09-03T01:05:02.034Z,12.35
2022-09-03T01:07:39.972Z,12.44
2022-09-03T01:10:20.234Z,12.33
2022-09-03T01:12:56.227Z,12.35
2022-09-03T01:15:26.504Z,12.38
2022-09-03T01:17:56.803Z,12.21
2022-09-03T01:20:42.220Z,12.19
2022-09-03T01:23:15.261Z,12.17
2022-09-03T01:25:51.674Z,12.11
2022-09-03T01:28:40.926Z,12.17
2022-09-03T01:31:21.284Z,12.13
2022-09-03T01:34:08.101Z,12.09
2022-09-03T01:36:41.369Z,12.07
2022-09-03T01:39:11.579Z,11.99
2022-09-03T01:42:08.434Z,11.84
2022-09-03T01:44:55.090Z,11.72
2022-09-03T01:47:33.255Z,11.76
2022-09-03T01:50:03.615Z,11.53
2022-09-03T01:52:40.771Z,11.54
2022-09-03T01:55:27.871Z,11.55
2022-09-03T01:58:07.151Z,11.56
2022-09-03T02:00:37.336Z,11.38
2022-09-03T02:03:07.661Z,11.41
2022-09-03T02:05:36.961Z,11.26
2022-09-03T02:08:07.348Z,11.07
2022-09-03T02:10:46.513Z,11.08
2022-09-03T02:13:19.720Z,11.03
2022-09-03T02:15:49.775Z,10.96
2022-09-03T02:18:23.180Z,10.91
2022-09-03T02:20:53.489Z,10.77
2022-09-03T02:23:24.666Z,10.77
2022-09-03T02:25:54.507Z,10.71
2022-09-03T02:28:24.458Z,10.68
2022-09-03T02:30:53.439Z,10.64
2022-09-03T02:33:22.342Z,10.66
2022-09-03T02:35:52.073Z,10.55
2022-09-03T02:38:21.988Z,10.52
2022-09-03T02:40:50.682Z,10.47
2022-09-03T02:43:25.943Z,10.24
2022-09-03T02:45:56.996Z,10.19
2022-09-03T02:48:25.915Z,10.08
2022-09-03T02:50:54.824Z,10.06
2022-09-03T02:53:24.194Z,9.94
2022-09-03T02:55:53.071Z,9.80
2022-09-03T02:58:21.913Z,9.73
2022-09-03T03:00:50.696Z,9.79
2022-09-03T03:03:19.442Z,9.84
2022-09-03T03:05:49.767Z,9.79
2022-09-03T03:08:21.169Z,9.71
2022-09-03T03:10:51.774Z,9.61
2022-09-03T03:13:20.864Z,9.54
2022-09-03T03:15:49.631Z,9.58
2022-09-03T03:18:18.345Z,9.47
2022-09-03T03:20:49.404Z,9.41
2022-09-03T03:23:18.498Z,9.32
2022-09-03T03:25:47.594Z,9.34
2022-09-03T03:28:18.119Z,9.36
2022-09-03T03:30:48.733Z,9.42
2022-09-03T03:33:17.641Z,9.35
2022-09-03T03:35:46.636Z,9.37
2022-09-03T03:38:15.383Z,9.32
2022-09-03T03:40:44.995Z,9.28
2022-09-03T03:43:13.730Z,9.28
2022-09-03T03:45:42.484Z,9.23
2022-09-03T03:48:11.257Z,9.14
2022-09-03T03:50:40.089Z,9.13
2022-09-03T03:53:09.106Z,9.10
2022-09-03T03:55:39.189Z,9.03
2022-09-03T03:58:08.094Z,9.00
2022-09-03T04:00:37.864Z,8.97
2022-09-03T04:03:06.592Z,8.95
2022-09-03T04:05:35.387Z,8.82
2022-09-03T04:08:04.331Z,8.75
2022-09-03T04:10:33.264Z,8.82
2022-09-03T04:13:02.051Z,8.83
2022-09-03T04:15:30.841Z,8.86
2022-09-03T04:18:00.633Z,8.87
2022-09-03T04:20:29.503Z,8.86
2022-09-03T04:23:01.586Z,8.87
2022-09-03T04:25:31.493Z,8.80
2022-09-03T04:28:00.620Z,8.79
2022-09-03T04:30:30.266Z,8.81
2022-09-03T04:33:00.865Z,8.79
2022-09-03T04:35:31.858Z,8.82
2022-09-03T04:38:00.675Z,8.83
2022-09-03T04:40:29.644Z,8.82
2022-09-03T04:42:59.563Z,9.05
2022-09-03T04:45:28.932Z,9.35
2022-09-03T04:48:04.107Z,9.69
2022-09-03T04:50:36.309Z,9.79
2022-09-03T04:53:08.213Z,10.04
2022-09-03T04:55:38.004Z,10.11
2022-09-03T04:58:10.044Z,10.17
2022-09-03T05:00:38.904Z,10.39
2022-09-03T05:03:07.640Z,10.55
2022-09-03T05:05:36.410Z,10.78
2022-09-03T05:08:06.018Z,11.05
2022-09-03T05:10:35.804Z,11.39
2022-09-03T05:13:06.064Z,11.70
2022-09-03T05:15:34.849Z,11.90
2022-09-03T05:18:04.143Z,11.94
2022-09-03T05:20:32.944Z,12.20
2022-09-03T05:23:04.559Z,12.56
2022-09-03T05:25:33.376Z,12.89
2022-09-03T05:28:02.262Z,12.91
2022-09-03T05:30:31.076Z,13.15
2022-09-03T05:32:59.860Z,13.80
2022-09-03T05:35:30.280Z,13.89
2022-09-03T05:38:00.785Z,13.86
2022-09-03T05:40:29.671Z,13.96
2022-09-03T05:43:00.344Z,14.03
2022-09-03T05:45:29.957Z,13.82
2022-09-03T05:48:00.650Z,13.76
2022-09-03T05:50:29.455Z,13.75
2022-09-03T05:53:00.788Z,13.50
2022-09-03T05:55:29.520Z,13.30
2022-09-03T05:57:58.251Z,13.50
2022-09-03T06:00:27.518Z,13.59
2022-09-03T06:02:56.853Z,13.68
2022-09-03T06:05:25.641Z,13.96
2022-09-03T06:07:54.461Z,14.12
2022-09-03T06:10:26.257Z,14.17
2022-09-03T06:12:54.293Z,14.11
2022-09-03T06:15:23.055Z,14.12
2022-09-03T06:17:51.866Z,13.99
2022-09-03T06:20:20.818Z,13.78
2022-09-03T06:22:51.900Z,14.05
2022-09-03T06:25:20.649Z,13.83
2022-09-03T06:27:50.093Z,14.18
2022-09-03T06:30:18.855Z,14.32
2022-09-03T06:32:47.980Z,14.17
2022-09-03T06:35:16.929Z,14.40
2022-09-03T06:37:46.743Z,14.31
2022-09-03T06:40:17.299Z,14.30
2022-09-03T06:42:46.219Z,14.43
2022-09-03T06:45:16.940Z,14.77
2022-09-03T06:47:45.600Z,14.80
2022-09-03T06:50:14.403Z,14.46
2022-09-03T06:52:43.166Z,14.51
2022-09-03T06:55:11.993Z,14.64
2022-09-03T06:57:40.691Z,14.46
2022-09-03T07:00:09.858Z,15.08
2022-09-03T07:02:44.287Z,15.01
2022-09-03T07:05:10.587Z,15.24
2022-09-03T07:07:39.378Z,15.44
2022-09-03T07:10:10.121Z,15.22
2022-09-03T07:12:38.943Z,15.47
2022-09-03T07:15:08.104Z,15.45
2022-09-03T07:17:37.134Z,15.57
2022-09-03T07:20:06.094Z,15.69
2022-09-03T07:22:35.019Z,15.48
2022-09-03T07:25:03.971Z,15.88
2022-09-03T07:27:32.800Z,15.64
2022-09-03T07:30:03.092Z,15.76
2022-09-03T07:32:31.840Z,16.14
2022-09-03T07:35:00.609Z,16.06
2022-09-03T07:37:29.339Z,16.26
2022-09-03T07:39:58.210Z,16.31
2022-09-03T07:42:28.636Z,16.53
2022-09-03T07:44:58.587Z,16.61
2022-09-03T07:47:28.097Z,16.87
2022-09-03T07:49:56.919Z,16.99
2022-09-03T07:52:26.790Z,16.78
2022-09-03T07:54:55.529Z,16.63
2022-09-03T07:57:24.412Z,17.20
2022-09-03T07:59:54.184Z,17.83
2022-09-03T08:02:23.117Z,18.01
2022-09-03T08:04:52.180Z,17.74
2022-09-03T08:07:20.961Z,17.54
2022-09-03T08:09:50.914Z,18.16
2022-09-03T08:12:19.664Z,18.05
2022-09-03T08:14:48.492Z,18.78
2022-09-03T08:17:18.215Z,18.81
2022-09-03T08:19:47.414Z,18.83
2022-09-03T08:22:16.211Z,18.88
2022-09-03T08:24:45.500Z,19.77
2022-09-03T08:27:15.327Z,20.04
2022-09-03T08:29:45.738Z,19.25
2022-09-03T08:32:14.522Z,19.33
2022-09-03T08:34:44.351Z,19.67
2022-09-03T08:37:13.427Z,19.28
2022-09-03T08:39:42.351Z,19.41
2022-09-03T08:42:15.887Z,19.04
2022-09-03T08:44:49.113Z,18.99
2022-09-03T08:47:28.458Z,19.36
2022-09-03T08:50:04.714Z,19.24
2022-09-03T08:52:35.418Z,19.88
2022-09-03T08:55:09.073Z,20.01
2022-09-03T08:57:39.315Z,20.11
2022-09-03T09:00:08.443Z,20.86
2022-09-03T09:02:38.741Z,21.07
2022-09-03T09:05:11.120Z,20.62
2022-09-03T09:07:55.932Z,21.12
2022-09-03T09:10:38.437Z,20.87
2022-09-03T09:13:13.399Z,21.45
2022-09-03T09:15:43.719Z,21.60
2022-09-03T09:18:19.721Z,21.58
2022-09-03T09:20:55.949Z,21.39
2022-09-03T09:23:28.900Z,21.63
2022-09-03T09:25:59.747Z,21.61
2022-09-03T09:28:36.321Z,21.41
2022-09-03T09:31:07.727Z,21.81
2022-09-03T09:33:36.969Z,21.93
2022-09-03T09:36:08.625Z,21.68
2022-09-03T09:38:40.554Z,21.63
2022-09-03T09:41:10.912Z,21.65
2022-09-03T09:43:40.173Z,21.71
2022-09-03T09:46:19.424Z,21.66
2022-09-03T09:48:55.979Z,21.58
2022-09-03T09:51:26.769Z,21.58
2022-09-03T09:54:03.123Z,21.70
2022-09-03T09:56:32.211Z,22.21
2022-09-03T09:59:05.580Z,21.98
2022-09-03T10:01:35.171Z,21.71
2022-09-03T10:04:14.763Z,21.72
2022-09-03T10:07:00.237Z,21.92
2022-09-03T10:09:31.092Z,21.83
2022-09-03T10:12:03.614Z,22.37
2022-09-03T10:14:35.425Z,21.91
2022-09-03T10:17:11.783Z,22.24
2022-09-03T10:19:42.067Z,22.16
2022-09-03T10:22:15.679Z,21.72
2022-09-03T10:25:01.544Z,21.12
2022-09-03T10:27:31.995Z,21.52
2022-09-03T10:30:01.534Z,21.94
2022-09-03T10:32:37.841Z,21.50
2022-09-03T10:35:08.239Z,21.49
2022-09-03T10:37:39.547Z,21.77
2022-09-03T10:40:28.227Z,21.56
2022-09-03T10:43:14.118Z,22.05
2022-09-03T10:46:03.650Z,21.73
2022-09-03T10:48:45.855Z,20.70
2022-09-03T10:51:18.882Z,21.55
2022-09-03T10:54:01.483Z,22.21
2022-09-03T10:56:34.776Z,22.03
2022-09-03T10:59:05.079Z,21.90
2022-09-03T11:01:38.159Z,22.16
2022-09-03T11:04:20.558Z,21.60
2022-09-03T11:06:51.049Z,22.04
2022-09-03T11:09:21.269Z,21.73
2022-09-03T11:12:00.305Z,21.31
2022-09-03T11:14:33.766Z,20.70
2022-09-03T11:17:03.996Z,20.89
2022-09-03T11:19:37.998Z,21.74
2022-09-03T11:22:08.223Z,21.62
2022-09-03T11:24:40.010Z,21.50
2022-09-03T11:27:10.812Z,21.99
2022-09-03T11:29:41.127Z,21.96
2022-09-03T11:32:11.917Z,22.41
2022-09-03T11:34:50.836Z,22.30
2022-09-03T11:37:21.114Z,22.72
2022-09-03T11:39:57.799Z,21.63
2022-09-03T11:42:34.156Z,20.90
2022-09-03T11:45:22.651Z,20.70
2022-09-03T11:47:51.806Z,21.57
2022-09-03T11:50:22.119Z,21.37
2022-09-03T11:52:53.431Z,22.16
2022-09-03T11:55:26.203Z,22.24
2022-09-03T11:57:54.992Z,21.56
2022-09-03T12:00:25.117Z,21.48
2022-09-03T12:02:59.010Z,21.30
2022-09-03T12:05:34.934Z,20.94
2022-09-03T12:08:09.081Z,21.10
2022-09-03T12:10:51.599Z,20.84
2022-09-03T12:13:24.944Z,21.26
2022-09-03T12:16:10.703Z,21.23
2022-09-03T12:18:41.488Z,20.99
2022-09-03T12:21:11.127Z,20.98
2022-09-03T12:23:50.258Z,20.77
2022-09-03T12:26:20.856Z,20.75
2022-09-03T12:28:52.735Z,20.55
2022-09-03T12:31:25.300Z,20.71
2022-09-03T12:33:55.486Z,21.46
2022-09-03T12:36:24.484Z,22.48
2022-09-03T12:39:12.010Z,22.65
2022-09-03T12:41:28.249Z,22.58
2022-09-03T12:43:58.208Z,22.75
2022-09-03T12:46:33.209Z,23.32
2022-09-03T12:51:56.730Z,23.51
2022-09-03T12:54:11.486Z,24.04
2022-09-03T12:56:42.416Z,24.27
2022-09-03T12:59:13.042Z,24.72
2022-09-03T13:01:43.314Z,24.16
2022-09-03T13:04:15.324Z,23.46
2022-09-03T13:06:45.607Z,22.18
2022-09-03T13:09:15.684Z,22.23
2022-09-03T13:11:45.217Z,21.96
2022-09-03T13:14:16.079Z,21.50
2022-09-03T13:16:48.907Z,21.62
2022-09-03T13:19:28.744Z,21.51
2022-09-03T13:22:05.620Z,21.59
2022-09-03T13:24:44.855Z,21.60
2022-09-03T13:27:31.723Z,21.55
2022-09-03T13:30:13.768Z,22.06
2022-09-03T13:32:44.118Z,22.61
2022-09-03T13:35:16.261Z,22.16
2022-09-03T13:37:48.226Z,21.52
2022-09-03T13:40:29.511Z,21.61
2022-09-03T13:43:01.397Z,21.54
2022-09-03T13:45:31.937Z,21.33
2022-09-03T13:48:29.724Z,21.08
2022-09-03T13:51:06.336Z,20.92
2022-09-03T13:53:36.826Z,20.89
2022-09-03T13:56:25.421Z,20.87
2022-09-03T13:58:55.632Z,20.71
2022-09-03T14:01:25.918Z,21.07
2022-09-03T14:03:56.200Z,20.93
2022-09-03T14:06:32.471Z,20.99
2022-09-03T14:09:02.777Z,21.07
2022-09-03T14:11:48.041Z,21.21
2022-09-03T14:14:37.381Z,21.63
2022-09-03T14:17:16.341Z,21.89
2022-09-03T14:19:50.738Z,22.04
2022-09-03T14:22:23.718Z,21.39
2022-09-03T14:24:54.091Z,21.40
2022-09-03T14:27:28.130Z,21.07
2022-09-03T14:30:03.977Z,21.03
2022-09-03T14:32:37.913Z,20.73
2022-09-03T14:35:09.683Z,20.45
2022-09-03T14:37:58.444Z,20.81
2022-09-03T14:40:46.957Z,20.53
2022-09-03T14:43:23.333Z,20.61
2022-09-03T14:46:05.034Z,20.74
2022-09-03T14:48:37.876Z,20.70
2022-09-03T14:51:11.182Z,20.39
2022-09-03T14:53:43.038Z,20.34
2022-09-03T14:56:20.201Z,20.38
2022-09-03T14:58:50.534Z,20.75
2022-09-03T15:01:20.842Z,20.99
2022-09-03T15:03:51.172Z,21.22
2022-09-03T15:06:41.075Z,21.07
2022-09-03T15:09:14.054Z,20.53
2022-09-03T15:11:44.227Z,20.21
2022-09-03T15:14:17.391Z,20.12
2022-09-03T15:16:47.964Z,20.08
2022-09-03T15:19:18.334Z,20.06
2022-09-03T15:21:48.620Z,19.93
2022-09-03T15:24:21.955Z,19.93
2022-09-03T15:26:59.214Z,20.32
2022-09-03T15:29:44.578Z,20.08
2022-09-03T15:32:14.841Z,20.14
2022-09-03T15:34:45.172Z,20.20
2022-09-03T15:37:15.405Z,20.37
2022-09-03T15:39:45.419Z,20.22
2022-09-03T15:42:18.661Z,20.08
2022-09-03T15:44:48.925Z,20.02
2022-09-03T15:47:21.860Z,19.93
2022-09-03T15:49:55.578Z,19.91
2022-09-03T15:52:31.951Z,19.95
2022-09-03T15:55:03.152Z,19.95
2022-09-03T15:57:36.648Z,19.95
2022-09-03T16:00:13.446Z,19.77
2022-09-03T16:02:50.704Z,19.70
2022-09-03T16:05:20.937Z,19.71
2022-09-03T16:07:51.244Z,19.56
2022-09-03T16:10:24.643Z,19.45
2022-09-03T16:12:53.222Z,19.32
2022-09-03T16:15:23.713Z,19.34
2022-09-03T16:18:09.300Z,19.25
2022-09-03T16:20:39.609Z,19.12
2022-09-03T16:23:22.066Z,19.02
2022-09-03T16:25:52.922Z,18.83
2022-09-03T16:28:23.251Z,18.92
2022-09-03T16:30:53.657Z,18.88
2022-09-03T16:33:26.616Z,18.88
2022-09-03T16:35:56.965Z,18.74
2022-09-03T16:38:27.246Z,18.65
2022-09-03T16:40:57.488Z,18.82
2022-09-03T16:43:41.672Z,18.56
2022-09-03T16:46:08.826Z,18.50
2022-09-03T16:48:43.843Z,18.40
2022-09-03T16:51:23.871Z,18.53
2022-09-03T16:54:06.276Z,18.23
2022-09-03T16:56:46.484Z,18.35
2022-09-03T16:59:16.727Z,18.39
2022-09-03T17:01:56.668Z,18.38
2022-09-03T17:04:30.169Z,18.40
2022-09-03T17:07:09.485Z,18.17
2022-09-03T17:09:39.724Z,18.22
2022-09-03T17:12:15.999Z,18.04
2022-09-03T17:14:46.344Z,17.88
2022-09-03T17:17:19.407Z,17.78
2022-09-03T17:20:06.272Z,17.69
2022-09-03T17:22:53.365Z,17.57
2022-09-03T17:25:23.878Z,17.45
2022-09-03T17:28:03.158Z,17.49
2022-09-03T17:30:48.508Z,17.42
2022-09-03T17:33:35.134Z,17.30
2022-09-03T17:36:06.230Z,17.26
2022-09-03T17:38:42.167Z,17.15
2022-09-03T17:41:15.408Z,17.01
2022-09-03T17:43:45.664Z,16.94
2022-09-03T17:46:33.819Z,16.84
2022-09-03T17:49:03.358Z,16.68
2022-09-03T17:51:36.922Z,16.59
2022-09-03T17:54:11.145Z,16.48
2022-09-03T17:56:47.176Z,16.31
2022-09-03T17:59:20.487Z,16.12
2022-09-03T18:01:50.819Z,16.02
2022-09-03T18:04:35.038Z,15.91
2022-09-03T18:07:05.500Z,15.83
2022-09-03T18:09:37.881Z,15.69
2022-09-03T18:12:20.045Z,15.60
2022-09-03T18:14:56.301Z,15.42
2022-09-03T18:17:29.611Z,15.24
2022-09-03T18:20:20.802Z,15.10
2022-09-03T18:23:09.193Z,15.05
2022-09-03T18:25:57.233Z,14.91
2022-09-03T18:28:48.326Z,14.83
2022-09-03T18:31:35.115Z,14.79
2022-09-03T18:34:22.182Z,14.72
2022-09-03T18:37:08.956Z,14.65
2022-09-03T18:39:55.568Z,14.56
2022-09-03T18:43:02.065Z,14.48
2022-09-03T18:48:42.851Z,14.32
2022-09-03T18:51:31.456Z,14.23
2022-09-03T18:54:19.959Z,14.22
2022-09-03T18:57:09.879Z,14.15
2022-09-03T19:00:06.572Z,14.05
2022-09-03T19:03:01.355Z,13.95
2022-09-03T19:05:49.827Z,13.90
2022-09-03T19:08:41.051Z,13.79
2022-09-03T19:11:38.035Z,13.71
2022-09-03T19:14:25.761Z,13.63
2022-09-03T19:17:19.843Z,13.56
2022-09-03T19:20:24.791Z,13.50
2022-09-03T19:23:11.111Z,13.46
2022-09-03T19:25:57.853Z,13.32
2022-09-03T19:28:45.680Z,13.31
2022-09-03T19:31:42.894Z,13.21
2022-09-03T19:34:33.746Z,13.20
2022-09-03T19:37:30.508Z,13.08
2022-09-03T19:40:18.325Z,13.05
2022-09-03T19:43:12.457Z,12.99
2022-09-03T19:46:00.385Z,12.96
2022-09-03T19:49:05.301Z,12.87
2022-09-03T19:52:11.856Z,12.83
2022-09-03T19:54:58.784Z,12.74
2022-09-03T19:57:46.168Z,12.73
2022-09-03T20:00:33.608Z,12.66
2022-09-03T20:03:20.964Z,12.60
2022-09-03T20:06:11.184Z,12.58
2022-09-03T20:08:56.590Z,12.53
2022-09-03T20:11:28.041Z,12.47
2022-09-03T20:14:13.446Z,12.39
2022-09-03T20:16:52.856Z,12.41
2022-09-03T20:19:33.194Z,12.37
2022-09-03T20:22:15.740Z,12.35
2022-09-03T20:24:59.783Z,12.29
2022-09-03T20:27:31.922Z,12.27
2022-09-03T20:30:03.335Z,12.22
2022-09-03T20:32:36.489Z,12.22
2022-09-03T20:35:19.191Z,12.18
2022-09-03T20:37:51.676Z,12.13
2022-09-03T20:40:22.142Z,12.10
2022-09-03T20:42:56.845Z,12.07
2022-09-03T20:45:27.107Z,12.04
2022-09-03T20:48:14.378Z,12.06
2022-09-03T20:50:47.709Z,12.04
2022-09-03T20:53:35.528Z,11.98
2022-09-03T20:56:11.725Z,11.94
2022-09-03T20:58:44.605Z,11.93
2022-09-03T21:01:32.068Z,11.89
2022-09-03T21:04:04.478Z,11.86
2022-09-03T21:06:37.181Z,11.83
2022-09-03T21:09:25.288Z,11.79
2022-09-03T21:11:55.534Z,11.71
2022-09-03T21:14:37.679Z,11.68
2022-09-03T21:17:15.854Z,11.61
2022-09-03T21:19:48.803Z,11.53
2022-09-03T21:22:34.520Z,11.52
2022-09-03T21:25:04.900Z,11.48
2022-09-03T21:27:35.232Z,11.40
2022-09-03T21:30:05.704Z,11.38
2022-09-03T21:32:45.408Z,11.38
2022-09-03T21:35:15.742Z,11.34
2022-09-03T21:37:45.969Z,11.31
2022-09-03T21:40:19.880Z,11.30
2022-09-03T21:42:48.339Z,11.27
2022-09-03T21:45:30.955Z,11.38
2022-09-03T21:48:16.458Z,11.32
2022-09-03T21:50:52.437Z,11.24
2022-09-03T21:53:22.819Z,11.19
2022-09-03T21:55:56.358Z,11.15
2022-09-03T21:58:32.491Z,11.13
2022-09-03T22:01:04.553Z,11.10
2022-09-03T22:03:34.157Z,11.04
2022-09-03T22:06:13.387Z,11.07
2022-09-03T22:08:45.367Z,11.03
2022-09-03T22:11:15.739Z,11.03
2022-09-03T22:13:46.103Z,11.01
2022-09-03T22:16:19.101Z,10.96
2022-09-03T22:18:49.447Z,10.93
2022-09-03T22:21:23.567Z,10.89
2022-09-03T22:24:21.517Z,10.86
2022-09-03T22:27:01.490Z,10.85
2022-09-03T22:29:34.453Z,10.80
2022-09-03T22:32:10.671Z,10.81
2022-09-03T22:34:41.989Z,10.78
2022-09-03T22:37:30.619Z,10.67
2022-09-03T22:40:13.257Z,10.65
2022-09-03T22:42:46.651Z,10.61
2022-09-03T22:45:29.027Z,10.58
2022-09-03T22:48:08.296Z,10.57
2022-09-03T22:50:47.494Z,10.55
2022-09-03T22:53:26.871Z,10.51
2022-09-03T22:55:57.088Z,10.48
2022-09-03T22:58:28.888Z,10.46
2022-09-03T23:00:59.279Z,10.43
2022-09-03T23:03:42.270Z,10.46
2022-09-03T23:06:13.131Z,10.40
2022-09-03T23:08:46.386Z,10.33
2022-09-03T23:11:21.050Z,10.33
2022-09-03T23:13:51.449Z,10.34
2022-09-03T23:16:38.987Z,10.31
2022-09-03T23:19:11.173Z,10.27
2022-09-03T23:21:42.076Z,10.24
2022-09-03T23:24:12.846Z,10.22
2022-09-03T23:26:43.133Z,10.23
2022-09-03T23:29:13.598Z,10.19
2022-09-03T23:31:42.600Z,10.15
2022-09-03T23:34:12.265Z,10.13
2022-09-03T23:37:10.410Z,10.10
2022-09-03T23:39:36.629Z,10.06
2022-09-03T23:42:10.514Z,10.04
2022-09-03T23:44:52.055Z,10.04
2022-09-03T23:47:39.183Z,10.05
2022-09-03T23:50:25.381Z,10.01
2022-09-03T23:52:55.694Z,10.00
2022-09-03T23:55:31.763Z,10.02
2022-09-03T23:58:10.719Z,9.99
